Terminal Aerodrome Forecast
Issued by NWS

Home | Current Version | Previous Version | Text Only | Print | Product List | Glossary On
Versions: 1 2 3 4 5 6 7 8 9 10 11 12 13 14 15 16 17 18 19 20 21 22 23 24 25 26 27
000
FTPA31 PHFO 230800 AAB
TAFPPG
TAF AMD
NSTU 230827Z 2308/2406 13011KT P6SM -SHRA VCTS SCT012CB OVC040
      TEMPO 2308/2312 VRB08KT 5SM TSRA BR BKN012CB
     FM231200 09010KT P6SM VCSH SCT015 BKN040 OVC100
     FM231800 05010KT P6SM -SHRA VCTS SCT015CB SCT030 OVC040=

USA.gov is the U.S. government's official web portal to all federal, state and local government web resources and services.